Time;durP1;ratioP1;P1;durP2;ratioP2;P2;SDS_P1;SDS_P2;PMS_P1;PMS_P2;Temp;Humidity;BMP_temperature;BMP_pressure;BME280_temperature;BME280_humidity;BME280_pressure;Samples;Min_cycle;Max_cycle;Signal;HPM_P1;HPM_P2
2022/12/03 00:01:29;;;;;;;22.10;13.48;;;;;;;2.25;100.00;100794.47;5030870;28;20202;-72
2022/12/03 00:03:57;;;;;;;27.20;15.27;;;;;;;2.25;100.00;100795.34;5026865;28;20202;-73
2022/12/03 00:06:24;;;;;;;22.15;12.35;;;;;;;2.21;100.00;100788.28;5024714;28;20233;-74
2022/12/03 00:08:50;;;;;;;21.00;11.60;;;;;;;2.24;100.00;100782.09;5048745;23;20605;-75
2022/12/03 00:11:17;;;;;;;19.92;11.70;;;;;;;2.21;100.00;100785.63;5039461;28;20572;-75
2022/12/03 00:13:44;;;;;;;21.00;11.98;;;;;;;2.18;100.00;100780.31;5037898;28;20748;-76
2022/12/03 00:16:11;;;;;;;21.33;11.98;;;;;;;2.21;100.00;100782.97;5042796;28;20204;-75
2022/12/03 00:18:37;;;;;;;19.00;11.75;;;;;;;2.26;100.00;100780.28;5024180;28;20756;-73
2022/12/03 00:21:06;;;;;;;22.75;12.82;;;;;;;2.24;100.00;100785.63;5024637;28;20194;-74
2022/12/03 00:23:32;;;;;;;21.13;12.18;;;;;;;2.23;100.00;100775.88;5021026;28;20208;-76
2022/12/03 00:25:59;;;;;;;22.02;11.75;;;;;;;2.31;100.00;100778.50;5018788;28;20316;-74
2022/12/03 00:28:25;;;;;;;23.33;12.98;;;;;;;2.36;100.00;100775.81;5024735;28;20293;-74
2022/12/03 00:30:53;;;;;;;22.90;12.80;;;;;;;2.38;100.00;100779.34;5020584;28;20308;-76
2022/12/03 00:33:19;;;;;;;21.48;12.15;;;;;;;2.32;100.00;100777.59;5028321;28;20212;-75
2022/12/03 00:35:46;;;;;;;22.35;13.50;;;;;;;2.28;100.00;100773.19;5027996;28;20197;-75
2022/12/03 00:38:14;;;;;;;22.95;12.50;;;;;;;2.33;100.00;100776.72;5022003;28;20227;-75
2022/12/03 00:40:40;;;;;;;23.52;13.27;;;;;;;2.32;100.00;100774.94;5031614;28;20285;-74
2022/12/03 00:43:07;;;;;;;24.23;12.82;;;;;;;2.34;100.00;100766.97;5024320;28;20206;-76
2022/12/03 00:45:33;;;;;;;22.35;13.52;;;;;;;2.31;100.00;100773.19;5019179;28;20634;-76
2022/12/03 00:48:00;;;;;;;21.42;12.50;;;;;;;2.36;100.00;100770.50;5018891;28;20264;-74
2022/12/03 00:50:27;;;;;;;25.33;14.18;;;;;;;2.41;100.00;100776.66;5028739;28;20205;-75
2022/12/03 00:52:53;;;;;;;24.35;15.35;;;;;;;2.47;100.00;100773.97;5036794;28;20654;-75
2022/12/03 00:55:21;;;;;;;27.90;14.30;;;;;;;2.44;100.00;100768.66;5027597;28;20205;-75
2022/12/03 00:57:47;;;;;;;24.92;13.82;;;;;;;2.36;100.00;100770.50;5012021;28;20332;-74
2022/12/03 01:00:15;;;;;;;29.10;14.98;;;;;;;2.38;100.00;100766.94;5020132;28;20806;-76
2022/12/03 01:02:42;;;;;;;26.48;14.07;;;;;;;2.43;100.00;100767.78;5013529;28;20202;-75
2022/12/03 01:05:09;;;;;;;29.05;13.80;;;;;;;2.46;100.00;100769.53;5024617;28;20767;-74
2022/12/03 01:07:36;;;;;;;25.88;14.55;;;;;;;2.48;100.00;100762.44;4997448;28;20338;-73
2022/12/03 01:10:02;;;;;;;26.27;14.00;;;;;;;2.54;100.00;100774.81;5016427;28;20201;-75
2022/12/03 01:12:30;;;;;;;28.73;14.75;;;;;;;2.55;100.00;100772.13;5021454;28;20341;-74
2022/12/03 01:14:57;;;;;;;27.20;14.82;;;;;;;2.52;100.00;100781.91;5022398;28;20201;-75
2022/12/03 01:17:23;;;;;;;26.95;13.85;;;;;;;2.55;100.00;100772.13;5027917;28;20214;-74
2022/12/03 01:19:51;;;;;;;27.23;14.90;;;;;;;2.52;100.00;100766.84;5009968;28;20297;-74
2022/12/03 01:22:18;;;;;;;30.23;15.95;;;;;;;2.53;100.00;100773.91;5025995;28;20202;-76
2022/12/03 01:24:44;;;;;;;26.90;15.13;;;;;;;2.54;100.00;100778.34;5018985;28;20270;-75
2022/12/03 01:27:11;;;;;;;28.55;15.73;;;;;;;2.59;100.00;100779.19;5032934;28;20217;-74
2022/12/03 01:29:38;;;;;;;32.22;15.20;;;;;;;2.63;100.00;100772.97;5022110;28;20202;-74
2022/12/03 01:32:17;;;;;;;27.73;14.30;;;;;;;2.60;100.00;100775.66;5032730;28;20270;-76
2022/12/03 01:34:44;;;;;;;27.40;15.57;;;;;;;2.56;100.00;100773.91;5019408;28;20193;-75
2022/12/03 01:37:11;;;;;;;27.30;14.55;;;;;;;2.63;100.00;100775.63;5016529;28;20200;-75
2022/12/03 01:39:37;;;;;;;30.85;15.48;;;;;;;2.66;100.00;100780.91;5021793;28;20205;-74
2022/12/03 01:42:05;;;;;;;25.65;14.05;;;;;;;2.69;100.00;100775.59;5030301;28;20198;-74
2022/12/03 01:44:33;;;;;;;27.13;13.85;;;;;;;2.67;100.00;100780.03;5032429;28;20577;-73
2022/12/03 01:47:03;;;;;;;27.70;14.90;;;;;;;2.60;100.00;100770.34;5034986;28;20252;-75
2022/12/03 01:49:35;;;;;;;25.13;15.15;;;;;;;2.57;100.00;100767.69;5018720;28;20578;-76
2022/12/03 01:52:01;;;;;;;24.95;14.00;;;;;;;2.67;100.00;100776.50;5026512;28;20201;-74
2022/12/03 01:54:36;;;;;;;27.55;14.57;;;;;;;2.60;100.00;100780.97;5016231;28;20234;-73
2022/12/03 01:57:03;;;;;;;26.55;14.13;;;;;;;2.54;100.00;100774.81;5021209;28;20212;-76
2022/12/03 01:59:34;;;;;;;28.50;14.88;;;;;;;2.55;100.00;100774.78;5018716;28;20568;-73
2022/12/03 02:02:11;;;;;;;30.70;15.80;;;;;;;2.60;100.00;100775.66;5016368;28;20671;-74
2022/12/03 02:04:37;;;;;;;27.60;14.20;;;;;;;2.62;100.00;100771.22;4997012;28;20195;-74
2022/12/03 02:07:21;;;;;;;26.02;13.80;;;;;;;2.65;100.00;100778.28;5002640;28;20314;-76
2022/12/03 02:09:47;;;;;;;26.48;14.45;;;;;;;2.69;100.00;100772.03;5020426;28;20194;-75
2022/12/03 02:12:17;;;;;;;26.35;12.77;;;;;;;2.66;100.00;100783.59;5024039;28;20656;-75
2022/12/03 02:14:44;;;;;;;25.58;14.57;;;;;;;2.61;100.00;100782.75;5031600;28;20203;-74
2022/12/03 02:17:12;;;;;;;28.38;12.85;;;;;;;2.63;100.00;100786.28;5023257;28;20298;-74
2022/12/03 02:19:39;;;;;;;25.35;13.70;;;;;;;2.58;100.00;100777.44;5021615;28;20200;-73
2022/12/03 02:22:14;;;;;;;24.50;13.77;;;;;;;2.61;100.00;100776.53;5022481;28;20224;-73
2022/12/03 02:24:48;;;;;;;23.45;13.10;;;;;;;2.61;100.00;100772.09;5026947;28;20197;-74
2022/12/03 02:27:16;;;;;;;22.35;11.80;;;;;;;2.69;100.00;100780.00;5023416;28;20217;-74
2022/12/03 02:29:42;;;;;;;21.25;12.55;;;;;;;2.72;100.00;100780.00;5027759;28;20201;-75
2022/12/03 02:32:09;;;;;;;24.13;12.63;;;;;;;2.72;100.00;100772.91;5027132;28;20203;-74
2022/12/03 02:34:37;;;;;;;25.00;12.75;;;;;;;2.72;100.00;100780.88;5028281;28;20680;-73
2022/12/03 02:37:07;;;;;;;25.65;13.07;;;;;;;2.79;100.00;100780.84;5029462;28;20699;-74
2022/12/03 02:39:36;;;;;;;23.75;12.98;;;;;;;2.79;100.00;100772.88;5019378;28;20194;-74
2022/12/03 02:44:45;;;;;;;24.00;13.25;;;;;;;2.75;100.00;100761.34;4969665;28;20201;-73
2022/12/03 02:47:12;;;;;;;20.08;12.35;;;;;;;2.77;100.00;100759.56;4954763;29;20220;-74
2022/12/03 02:49:38;;;;;;;21.02;12.65;;;;;;;2.72;100.00;100769.38;4958679;29;20196;-75
2022/12/03 02:52:05;;;;;;;18.98;11.93;;;;;;;2.68;100.00;100763.19;4966712;29;20273;-74
2022/12/03 02:54:31;;;;;;;22.85;12.60;;;;;;;2.71;100.00;100767.59;4935690;28;20208;-75
2022/12/03 02:56:58;;;;;;;23.40;12.07;;;;;;;2.67;100.00;100763.22;4954338;28;20200;-75
2022/12/03 02:59:25;;;;;;;25.17;12.50;;;;;;;2.65;100.00;100765.88;4962404;29;20289;-74
2022/12/03 03:01:53;;;;;;;21.95;11.80;;;;;;;2.63;100.00;100758.81;4960126;29;20291;-75
2022/12/03 03:04:21;;;;;;;19.80;11.55;;;;;;;2.65;100.00;100757.88;4962997;29;20211;-74
2022/12/03 03:06:47;;;;;;;17.90;11.10;;;;;;;2.69;100.00;100764.06;4958763;29;20252;-74
2022/12/03 03:09:14;;;;;;;20.60;11.77;;;;;;;2.69;100.00;100759.63;4956547;29;20228;-73
2022/12/03 03:11:41;;;;;;;22.60;12.30;;;;;;;2.68;100.00;100756.97;4953455;28;20656;-74
2022/12/03 03:14:07;;;;;;;19.73;10.77;;;;;;;2.67;100.00;100757.88;4953438;28;20703;-74
2022/12/03 03:16:34;;;;;;;21.58;11.60;;;;;;;2.69;100.00;100767.63;4962027;28;20224;-76
2022/12/03 03:19:02;;;;;;;19.98;11.70;;;;;;;2.66;100.00;100764.97;4954762;28;20225;-72
2022/12/03 03:21:28;;;;;;;21.88;10.93;;;;;;;2.65;100.00;100765.88;4980457;28;20206;-74
2022/12/03 03:23:55;;;;;;;20.40;11.70;;;;;;;2.63;100.00;100772.09;5033366;28;20202;-73
2022/12/03 03:26:22;;;;;;;18.23;10.18;;;;;;;2.66;100.00;100759.63;5030629;28;20213;-73
2022/12/03 03:28:51;;;;;;;21.92;11.15;;;;;;;2.65;100.00;100765.00;5025485;28;20700;-73
2022/12/03 03:31:21;;;;;;;19.65;11.23;;;;;;;2.68;100.00;100768.50;5026093;28;20213;-75
2022/12/03 03:33:49;;;;;;;16.50;10.20;;;;;;;2.67;100.00;100771.19;5033674;28;20221;-73
2022/12/03 03:36:18;;;;;;;21.50;10.20;;;;;;;2.70;100.00;100766.72;5023421;28;20676;-74
2022/12/03 03:38:44;;;;;;;19.50;10.82;;;;;;;2.77;100.00;100772.88;5020117;28;20222;-74
2022/12/03 03:41:13;;;;;;;19.02;10.68;;;;;;;2.71;100.00;100771.16;5027896;28;20209;-76
2022/12/03 03:43:42;;;;;;;19.75;11.15;;;;;;;2.63;100.00;100775.63;5022584;28;20217;-74
2022/12/03 03:46:09;;;;;;;17.80;9.85;;;;;;;2.61;100.00;100774.75;5025814;28;20564;-74
2022/12/03 03:48:36;;;;;;;21.67;11.90;;;;;;;2.66;100.00;100770.28;5017155;28;20693;-74
2022/12/03 03:51:07;;;;;;;19.15;11.50;;;;;;;2.66;100.00;100766.75;5026027;28;20549;-74
2022/12/03 03:53:36;;;;;;;16.25;10.20;;;;;;;2.65;100.00;100757.88;5022712;28;20209;-75
2022/12/03 03:56:02;;;;;;;18.02;10.60;;;;;;;2.67;100.00;100760.56;5021569;28;20205;-75
2022/12/03 03:58:29;;;;;;;19.13;11.27;;;;;;;2.64;100.00;100752.56;5030626;28;20971;-74
2022/12/03 04:00:56;;;;;;;17.13;9.80;;;;;;;2.68;100.00;100749.00;5026062;28;20574;-75
2022/12/03 04:03:22;;;;;;;16.95;9.82;;;;;;;2.69;100.00;100749.00;5025638;28;20289;-75
2022/12/03 04:05:50;;;;;;;17.08;10.50;;;;;;;2.62;100.00;100751.69;5015871;28;20216;-73
2022/12/03 04:08:16;;;;;;;16.38;10.48;;;;;;;2.61;100.00;100742.84;5025030;28;20226;-74
2022/12/03 04:13:43;;;;;;;16.70;10.00;;;;;;;2.66;100.00;100745.47;4958035;28;20694;-75
2022/12/03 04:16:10;;;;;;;16.60;9.90;;;;;;;2.68;100.00;100736.59;4955072;28;20205;-74
2022/12/03 04:18:42;;;;;;;18.52;11.35;;;;;;;2.62;100.00;100738.41;4969304;28;20222;-73
2022/12/03 04:23:53;;;;;;;17.15;10.48;;;;;;;2.64;100.00;100737.50;4956176;28;20295;-74
2022/12/03 04:29:05;;;;;;;13.90;9.10;;;;;;;2.70;100.00;100734.78;4960279;28;20321;-75
2022/12/03 04:36:59;;;;;;;16.35;9.80;;;;;;;2.63;100.00;100726.88;4964310;28;20198;-76
2022/12/03 04:39:26;;;;;;;15.77;9.15;;;;;;;2.49;100.00;100727.00;4958148;28;20208;-74
2022/12/03 04:41:54;;;;;;;14.63;8.98;;;;;;;2.49;100.00;100725.22;4969100;28;20283;-74
2022/12/03 04:44:36;;;;;;;16.40;9.57;;;;;;;2.47;100.00;100720.81;4963313;28;20224;-75
2022/12/03 04:47:05;;;;;;;14.85;9.80;;;;;;;2.48;100.00;100727.88;4970037;28;20219;-75
2022/12/03 04:49:32;;;;;;;14.77;9.65;;;;;;;2.55;100.00;100723.38;5021349;28;20667;-76
2022/12/03 04:51:59;;;;;;;18.33;10.80;;;;;;;2.60;100.00;100719.81;5024518;28;20194;-74
2022/12/03 04:54:25;;;;;;;19.02;10.55;;;;;;;2.61;100.00;100723.34;5004514;28;20303;-76
2022/12/03 04:56:52;;;;;;;16.75;11.20;;;;;;;2.60;100.00;100727.81;5001540;28;20199;-76
2022/12/03 04:59:20;;;;;;;15.65;10.68;;;;;;;2.59;100.00;100731.34;5017257;28;20704;-74
2022/12/03 05:01:46;;;;;;;16.55;9.50;;;;;;;2.59;100.00;100727.81;5010690;28;20202;-74
2022/12/03 05:04:14;;;;;;;17.67;9.93;;;;;;;2.61;100.00;100729.56;5025924;28;20289;-74
2022/12/03 05:06:41;;;;;;;14.88;9.18;;;;;;;2.54;100.00;100719.84;5023528;28;20566;-74
2022/12/03 05:09:08;;;;;;;16.20;9.43;;;;;;;2.57;100.00;100727.81;5019037;28;20226;-73
2022/12/03 05:11:35;;;;;;;15.50;9.15;;;;;;;2.51;100.00;100727.88;5014088;28;20297;-76
2022/12/03 05:14:01;;;;;;;18.75;10.10;;;;;;;2.38;100.00;100731.50;5026775;28;20207;-74
2022/12/03 05:16:29;;;;;;;15.13;9.85;;;;;;;2.50;100.00;100731.41;5012293;28;20237;-75
2022/12/03 05:18:56;;;;;;;15.07;9.73;;;;;;;2.49;100.00;100732.31;5011144;28;20214;-75
2022/12/03 05:21:23;;;;;;;15.82;8.93;;;;;;;2.48;100.00;100730.53;5022379;28;20584;-74
2022/12/03 05:23:49;;;;;;;13.75;8.63;;;;;;;2.49;100.00;100729.66;5031825;28;20209;-75
2022/12/03 05:26:16;;;;;;;18.58;10.43;;;;;;;2.54;100.00;100726.97;5028222;28;20207;-73
2022/12/03 05:28:43;;;;;;;16.15;9.70;;;;;;;2.55;100.00;100726.94;5032050;28;20229;-75
2022/12/03 05:31:09;;;;;;;15.00;8.98;;;;;;;2.59;100.00;100725.13;5028506;28;20292;-75
2022/12/03 05:33:37;;;;;;;13.40;7.95;;;;;;;2.56;100.00;100726.06;5014018;28;20200;-74
2022/12/03 05:36:04;;;;;;;17.35;10.82;;;;;;;2.49;100.00;100721.69;5020022;28;20299;-74
2022/12/03 05:38:30;;;;;;;16.02;9.45;;;;;;;2.53;100.00;100725.19;5009546;28;20221;-75
2022/12/03 05:40:57;;;;;;;15.18;9.68;;;;;;;2.49;100.00;100724.34;5021761;28;20212;-74
2022/12/03 05:43:23;;;;;;;18.60;9.60;;;;;;;2.50;100.00;100731.41;5020817;28;20201;-75
2022/12/03 05:45:49;;;;;;;18.23;9.90;;;;;;;2.55;100.00;100734.91;5021340;28;20572;-74
2022/12/03 05:48:16;;;;;;;15.23;10.18;;;;;;;2.63;100.00;100732.22;5023157;28;20226;-74
2022/12/03 05:50:45;;;;;;;16.85;10.70;;;;;;;2.62;100.00;100728.69;5026046;28;20205;-74
2022/12/03 05:53:13;;;;;;;19.00;11.00;;;;;;;2.57;100.00;100725.13;5021786;28;20198;-74
2022/12/03 05:55:39;;;;;;;20.52;10.27;;;;;;;2.47;100.00;100732.31;5022274;28;20296;-74
2022/12/03 05:58:06;;;;;;;15.40;8.57;;;;;;;2.48;100.00;100738.50;5016788;28;20572;-75
2022/12/03 06:00:36;;;;;;;17.98;11.27;;;;;;;2.42;100.00;100741.19;5020687;28;20285;-75
2022/12/03 06:03:03;;;;;;;18.38;10.18;;;;;;;2.40;100.00;100743.88;5021307;28;20190;-75
2022/12/03 06:05:30;;;;;;;17.67;9.52;;;;;;;2.42;100.00;100746.50;5027779;28;20682;-74
2022/12/03 06:07:58;;;;;;;16.48;10.57;;;;;;;2.40;100.00;100741.22;5046345;22;20225;-74
2022/12/03 06:10:26;;;;;;;16.92;9.00;;;;;;;2.40;100.00;100741.22;5051193;28;20668;-75
2022/12/03 06:12:53;;;;;;;17.92;10.75;;;;;;;2.34;100.00;100741.25;5060049;28;20190;-76
2022/12/03 06:15:20;;;;;;;15.82;10.07;;;;;;;2.29;100.00;100730.66;5044428;28;20201;-72
2022/12/03 06:17:47;;;;;;;17.08;9.70;;;;;;;2.26;100.00;100736.00;5051709;28;20207;-73
2022/12/03 06:20:15;;;;;;;19.00;10.65;;;;;;;2.30;100.00;100728.88;5039462;28;20201;-73
2022/12/03 06:22:42;;;;;;;17.23;10.23;;;;;;;2.37;100.00;100727.94;5036664;28;20197;-72
2022/12/03 06:25:10;;;;;;;20.45;10.07;;;;;;;2.39;100.00;100722.63;5032297;28;20200;-75
2022/12/03 06:27:37;;;;;;;17.10;10.32;;;;;;;2.40;100.00;100713.78;5025567;28;20611;-74
2022/12/03 06:30:05;;;;;;;17.42;9.52;;;;;;;2.32;100.00;100718.25;5036870;28;20352;-75
2022/12/03 06:32:31;;;;;;;17.23;10.95;;;;;;;2.31;100.00;100722.69;5035782;28;20285;-73
2022/12/03 06:34:58;;;;;;;18.73;10.02;;;;;;;2.39;100.00;100717.31;5042160;28;20216;-76
2022/12/03 06:37:25;;;;;;;15.75;9.57;;;;;;;2.36;100.00;100715.56;5035125;28;20190;-74
2022/12/03 06:39:51;;;;;;;14.60;9.43;;;;;;;2.38;100.00;100713.78;5036587;28;20315;-73
2022/12/03 06:42:19;;;;;;;17.30;9.88;;;;;;;2.39;100.00;100717.31;5036050;28;20276;-75
2022/12/03 06:44:46;;;;;;;15.50;9.18;;;;;;;2.37;100.00;100719.09;5046445;28;20561;-73
2022/12/03 06:47:13;;;;;;;18.25;11.05;;;;;;;2.39;100.00;100714.66;5037886;28;20206;-74
2022/12/03 06:49:39;;;;;;;16.70;9.75;;;;;;;2.41;100.00;100712.84;5050411;28;20232;-74
2022/12/03 06:52:06;;;;;;;18.13;10.35;;;;;;;2.40;100.00;100708.44;5052874;28;20205;-71
2022/12/03 06:54:32;;;;;;;18.90;9.88;;;;;;;2.34;100.00;100704.03;5054989;28;20196;-70
2022/12/03 06:56:59;;;;;;;15.73;9.63;;;;;;;2.36;100.00;100704.91;5052178;28;20233;-73
2022/12/03 06:59:27;;;;;;;15.50;9.52;;;;;;;2.34;100.00;100698.72;5039514;28;20222;-74
2022/12/03 07:01:53;;;;;;;15.57;9.40;;;;;;;2.37;100.00;100696.03;5053767;28;20208;-72
2022/12/03 07:04:20;;;;;;;14.27;9.13;;;;;;;2.44;100.00;100705.75;5041239;28;20723;-76
2022/12/03 07:06:46;;;;;;;17.08;10.23;;;;;;;2.47;100.00;100719.03;5054043;28;20208;-73
2022/12/03 07:09:15;;;;;;;17.27;10.40;;;;;;;2.36;100.00;100702.25;5059158;28;20702;-73
2022/12/03 07:11:41;;;;;;;18.10;9.95;;;;;;;2.32;100.00;100713.81;5044052;28;20660;-74
2022/12/03 07:14:09;;;;;;;17.00;9.30;;;;;;;2.38;100.00;100718.22;5033590;28;20706;-75
2022/12/03 07:16:38;;;;;;;16.02;9.90;;;;;;;2.41;100.00;100723.50;5038869;28;20204;-75
2022/12/03 07:19:06;;;;;;;16.85;9.90;;;;;;;2.46;100.00;100730.53;5036019;28;20216;-73
2022/12/03 07:21:33;;;;;;;18.20;10.43;;;;;;;2.43;100.00;100721.72;5043914;28;20197;-74
2022/12/03 07:24:00;;;;;;;31.35;17.92;;;;;;;2.50;100.00;100726.09;5039174;28;20213;-75
2022/12/03 07:26:26;;;;;;;19.67;12.52;;;;;;;2.53;100.00;100731.38;5023552;28;20558;-73
2022/12/03 07:28:53;;;;;;;19.77;10.80;;;;;;;2.60;100.00;100721.56;5032328;28;20232;-77
2022/12/03 07:31:20;;;;;;;19.20;11.20;;;;;;;2.63;100.00;100726.88;5037729;28;20587;-74
2022/12/03 07:33:48;;;;;;;18.25;10.52;;;;;;;2.68;100.00;100725.94;5038662;28;20217;-75
2022/12/03 07:36:14;;;;;;;20.65;12.63;;;;;;;2.72;100.00;100730.34;5037982;28;20204;-75
2022/12/03 07:38:41;;;;;;;18.42;10.65;;;;;;;2.72;100.00;100733.00;5039711;28;20221;-75
2022/12/03 07:41:08;;;;;;;18.48;10.68;;;;;;;2.66;100.00;100733.03;5040598;28;20205;-75
2022/12/03 07:43:34;;;;;;;18.83;10.95;;;;;;;2.69;100.00;100730.38;5041177;28;20204;-74
2022/12/03 07:46:01;;;;;;;16.00;10.50;;;;;;;2.77;100.00;100721.47;5038045;28;20204;-75
2022/12/03 07:48:27;;;;;;;16.83;10.63;;;;;;;2.71;100.00;100727.69;5045111;28;20229;-76
2022/12/03 07:50:55;;;;;;;17.45;11.18;;;;;;;2.71;100.00;100725.94;5034217;28;20201;-73
2022/12/03 07:53:22;;;;;;;16.77;10.50;;;;;;;2.79;100.00;100728.53;5039213;28;20205;-72
2022/12/03 07:55:48;;;;;;;16.85;9.90;;;;;;;2.80;100.00;100724.97;5039924;28;20220;-74
2022/12/03 07:58:15;;;;;;;18.00;11.05;;;;;;;2.76;100.00;100722.34;5037672;28;20218;-76
2022/12/03 08:00:41;;;;;;;19.35;10.52;;;;;;;2.74;100.00;100726.78;5043762;28;20204;-76
2022/12/03 08:03:08;;;;;;;17.92;10.88;;;;;;;2.78;100.00;100717.88;5041517;28;20285;-74
2022/12/03 08:05:34;;;;;;;18.08;10.35;;;;;;;2.82;100.00;100719.63;5041898;28;20194;-73
2022/12/03 08:08:02;;;;;;;18.98;11.35;;;;;;;2.79;100.00;100722.34;5043531;28;20221;-73
2022/12/03 08:10:29;;;;;;;16.00;10.85;;;;;;;2.79;100.00;100725.00;5034004;28;20379;-75
2022/12/03 08:12:58;;;;;;;17.58;11.25;;;;;;;2.81;100.00;100724.06;5034289;28;20200;-75
2022/12/03 08:15:28;;;;;;;18.98;10.80;;;;;;;2.87;100.00;100717.81;5032719;28;20229;-73
2022/12/03 08:17:57;;;;;;;18.98;11.50;;;;;;;2.91;100.00;100723.09;5034155;28;20209;-75
2022/12/03 08:20:26;;;;;;;17.38;9.95;;;;;;;2.88;100.00;100728.44;5041374;28;20284;-73
2022/12/03 08:22:54;;;;;;;19.92;11.05;;;;;;;2.95;100.00;100723.09;5034506;28;20198;-74
2022/12/03 08:25:24;;;;;;;17.00;11.10;;;;;;;3.01;100.00;100721.25;5037835;28;20202;-73
2022/12/03 08:27:53;;;;;;;18.52;11.13;;;;;;;2.99;100.00;100725.69;5035282;28;20222;-73
2022/12/03 08:30:20;;;;;;;20.15;12.05;;;;;;;3.02;100.00;100723.00;5033373;28;20241;-75
2022/12/03 08:32:48;;;;;;;16.70;10.80;;;;;;;2.98;100.00;100723.03;5030548;28;20246;-74
2022/12/03 08:35:23;;;;;;;18.35;11.38;;;;;;;3.01;100.00;100725.66;5040211;28;20232;-75
2022/12/03 08:37:55;;;;;;;24.38;12.05;;;;;;;3.09;100.00;100714.06;5046498;28;20189;-73
2022/12/03 08:40:31;;;;;;;21.58;12.60;;;;;;;3.14;100.00;100722.00;5038112;28;20292;-74
2022/12/03 08:42:58;;;;;;;19.63;11.50;;;;;;;3.25;100.00;100721.88;5037063;28;20217;-75
2022/12/03 08:45:39;;;;;;;18.17;12.60;;;;;;;3.24;100.00;100718.34;5028506;28;20198;-73
2022/12/03 08:48:29;;;;;;;15.73;9.80;;;;;;;3.36;100.00;100717.34;5033616;28;20229;-71
2022/12/03 08:50:57;;;;;;;18.90;11.82;;;;;;;3.44;100.00;100715.47;5043661;28;20198;-72
2022/12/03 08:53:28;;;;;;;17.73;11.15;;;;;;;3.57;100.00;100707.34;5040728;28;20209;-72
2022/12/03 08:55:58;;;;;;;19.65;11.57;;;;;;;3.69;100.00;100709.88;5039146;28;20260;-73
2022/12/03 08:58:33;;;;;;;19.45;11.85;;;;;;;3.76;100.00;100715.09;5045311;28;20300;-73
2022/12/03 09:01:07;;;;;;;18.95;12.63;;;;;;;3.96;100.00;100711.31;5037411;28;20189;-75
2022/12/03 09:03:34;;;;;;;20.98;12.48;;;;;;;3.95;100.00;100704.19;5040604;28;20202;-74
2022/12/03 09:06:00;;;;;;;19.63;11.95;;;;;;;4.01;100.00;100709.44;5035102;28;20240;-76
2022/12/03 09:08:27;;;;;;;22.17;12.55;;;;;;;3.85;100.00;100710.56;5043391;28;20313;-75
2022/12/03 09:10:53;;;;;;;19.02;12.38;;;;;;;3.85;100.00;100706.13;5038488;28;20220;-75
2022/12/03 09:13:21;;;;;;;22.25;12.43;;;;;;;3.58;100.00;100706.47;5039283;28;20202;-73
2022/12/03 09:15:48;;;;;;;19.27;11.95;;;;;;;3.71;100.00;100705.41;5034124;28;20203;-73
2022/12/03 09:18:14;;;;;;;21.40;13.32;;;;;;;3.59;100.00;100708.22;5032547;28;20219;-75
2022/12/03 09:20:41;;;;;;;20.40;12.27;;;;;;;3.68;100.00;100705.44;5030628;28;20198;-76
2022/12/03 09:23:08;;;;;;;23.38;12.95;;;;;;;3.59;100.00;100716.19;5048313;28;20265;-76
2022/12/03 09:25:35;;;;;;;20.00;12.05;;;;;;;3.54;100.00;100713.59;5029842;28;20192;-74
2022/12/03 09:28:01;;;;;;;19.98;11.90;;;;;;;3.48;100.00;100709.22;5036819;28;20225;-78
2022/12/03 09:30:29;;;;;;;22.77;13.40;;;;;;;3.43;100.00;100713.69;5035533;28;20233;-79
2022/12/03 09:32:56;;;;;;;23.40;12.93;;;;;;;3.42;100.00;100717.28;5043351;28;20233;-76
2022/12/03 09:35:24;;;;;;;19.55;12.52;;;;;;;3.49;100.00;100708.31;5032499;28;20229;-77
2022/12/03 09:37:51;;;;;;;24.13;13.50;;;;;;;3.40;100.00;100710.22;5037557;28;20228;-76
2022/12/03 09:40:18;;;;;;;20.25;12.68;;;;;;;3.53;100.00;100699.41;5030595;28;20318;-77
2022/12/03 09:42:45;;;;;;;23.88;13.13;;;;;;;3.51;100.00;100698.53;5036685;28;20687;-78
2022/12/03 09:45:14;;;;;;;54.28;31.50;;;;;;;3.45;100.00;100705.72;5034014;28;20202;-75
2022/12/03 09:47:45;;;;;;;73.38;42.90;;;;;;;3.66;100.00;100699.25;5035398;28;20212;-77
2022/12/03 09:50:13;;;;;;;27.65;15.45;;;;;;;3.59;100.00;100698.44;5045423;28;20201;-74
2022/12/03 09:52:40;;;;;;;23.02;13.75;;;;;;;3.58;100.00;100695.81;5038257;28;20198;-74
2022/12/03 09:55:15;;;;;;;24.83;13.23;;;;;;;3.69;100.00;100696.56;5033692;28;20199;-72
2022/12/03 09:57:41;;;;;;;23.92;13.80;;;;;;;3.54;100.00;100693.16;5043965;28;20204;-76
2022/12/03 10:00:15;;;;;;;22.73;14.45;;;;;;;3.52;100.00;100692.28;5029119;28;20195;-75
2022/12/03 10:02:43;;;;;;;24.98;12.77;;;;;;;3.53;100.00;100690.53;5039487;28;20205;-76
2022/12/03 10:05:10;;;;;;;24.52;13.68;;;;;;;3.56;100.00;100685.16;5032517;28;20194;-75
2022/12/03 10:07:37;;;;;;;19.98;12.73;;;;;;;3.53;100.00;100685.22;5049468;28;20651;-73
2022/12/03 10:10:04;;;;;;;28.80;15.38;;;;;;;3.53;100.00;100679.88;5052447;28;20221;-72
2022/12/03 10:12:31;;;;;;;22.38;13.85;;;;;;;3.55;100.00;100673.63;5040370;28;20209;-72
2022/12/03 10:14:57;;;;;;;24.95;14.68;;;;;;;3.61;100.00;100666.47;5043545;28;20197;-75
2022/12/03 10:17:24;;;;;;;24.70;14.25;;;;;;;3.63;100.00;100659.34;5038375;28;20285;-75
2022/12/03 10:19:52;;;;;;;23.40;13.63;;;;;;;3.70;100.00;100656.56;5042622;28;20218;-74
2022/12/03 10:22:18;;;;;;;24.92;15.25;;;;;;;3.77;100.00;100662.69;5042485;28;20266;-73
2022/12/03 10:24:45;;;;;;;22.27;13.82;;;;;;;3.79;100.00;100654.69;5036888;28;20198;-72
2022/12/03 10:27:22;;;;;;;24.48;15.10;;;;;;;3.87;100.00;100658.13;5052827;28;20220;-74
2022/12/03 10:29:55;;;;;;;26.13;15.02;;;;;;;3.86;100.00;100648.38;5020793;28;20230;-73
2022/12/03 10:32:26;;;;;;;25.55;15.45;;;;;;;3.91;100.00;100650.06;5046431;28;20194;-74
2022/12/03 10:35:08;;;;;;;23.38;14.48;;;;;;;3.87;100.00;100645.69;5058003;28;20203;-75
2022/12/03 10:37:34;;;;;;;22.98;15.00;;;;;;;3.90;100.00;100655.41;5036378;28;20287;-74
2022/12/03 10:40:07;;;;;;;23.42;15.35;;;;;;;3.75;100.00;100645.84;5044758;28;20222;-73
2022/12/03 10:42:35;;;;;;;27.23;16.60;;;;;;;3.74;100.00;100652.09;5037228;28;20197;-74
2022/12/03 10:45:17;;;;;;;25.77;13.63;;;;;;;3.73;100.00;100645.88;5036684;28;20949;-75
2022/12/03 10:48:01;;;;;;;26.77;15.02;;;;;;;3.77;100.00;100652.03;5028556;28;20210;-75
2022/12/03 10:50:29;;;;;;;22.38;13.43;;;;;;;3.71;100.00;100641.47;5046616;28;20796;-75
2022/12/03 10:52:57;;;;;;;25.98;14.95;;;;;;;3.71;100.00;100645.03;5050315;28;20210;-75
2022/12/03 10:55:24;;;;;;;26.40;15.55;;;;;;;3.66;100.00;100641.50;5046605;28;20659;-73
2022/12/03 10:57:51;;;;;;;25.75;15.65;;;;;;;3.79;100.00;100636.91;5057396;28;20227;-75
2022/12/03 11:00:19;;;;;;;28.65;15.90;;;;;;;3.71;100.00;100636.16;5034800;28;20207;-76
2022/12/03 11:02:46;;;;;;;23.60;14.70;;;;;;;3.63;100.00;100638.03;5038096;28;20194;-75
2022/12/03 11:05:15;;;;;;;27.77;16.55;;;;;;;3.59;100.00;100630.97;5037860;28;20659;-73
2022/12/03 11:07:44;;;;;;;28.95;16.52;;;;;;;3.63;100.00;100627.38;5044507;28;20287;-73
2022/12/03 11:10:14;;;;;;;28.00;17.20;;;;;;;3.65;100.00;100630.91;5047262;28;20216;-74
2022/12/03 11:12:41;;;;;;;28.48;16.73;;;;;;;3.62;100.00;100620.25;5046460;28;20226;-73
2022/12/03 11:15:15;;;;;;;31.80;17.55;;;;;;;3.60;100.00;100619.44;5055911;28;20447;-77
2022/12/03 11:17:47;;;;;;;31.33;16.25;;;;;;;3.63;100.00;100622.91;5044799;28;20292;-74
2022/12/03 11:20:51;;;;;;;26.30;15.98;;;;;;;3.47;100.00;100616.91;5049437;28;20686;-77
2022/12/03 11:23:57;;;;;;;27.10;15.55;;;;;;;3.69;100.00;100608.66;5063771;28;20187;-75
2022/12/03 11:27:03;;;;;;;24.02;15.20;;;;;;;3.69;100.00;100601.53;5047706;28;20210;-76
2022/12/03 11:29:58;;;;;;;29.20;16.40;;;;;;;3.75;100.00;100609.44;4988047;28;20290;-75
2022/12/03 11:33:07;;;;;;;28.13;16.40;;;;;;;3.79;100.00;100604.06;4981359;28;20201;-75
2022/12/03 11:36:12;;;;;;;31.88;17.20;;;;;;;3.86;100.00;100603.94;4993859;28;20860;-74